.
WxDataArchive / Data Records for 2010-08-26
2010-08-25 August 2010 2010-08-27

Data Records for Thursday, 26 August 2010

Time	Temp	Chill	HIndex	Humid	Dewpt	 Wind 	HiWind	WindDir	Rain 	Barom 
-----	----	-----	------	-----	-----	------	------	-------	-----	----- 
00:00	63.2	63.2	63.2	70	53.2	0	0	---	0.00	30.083 
00:05	63.1	63.1	63.1	71	53.5	0	0	---	0.00	30.083 
00:10	62.7	62.7	62.7	72	53.5	0	0	---	0.00	30.083 
00:15	62.6	62.6	62.6	72	53.4	0	0	---	0.00	30.088 
00:20	62.3	62.3	62.3	73	53.5	0	0	---	0.00	30.088 
00:25	62.0	62.0	62.0	74	53.6	0	0	---	0.00	30.088 
00:30	61.8	61.8	61.8	74	53.4	0	0	---	0.00	30.090 
00:35	61.6	61.6	61.6	75	53.6	0	0	---	0.00	30.090 
00:40	61.3	61.3	61.3	76	53.7	0	0	---	0.00	30.090 
00:45	61.2	61.2	61.2	76	53.6	0	0	---	0.00	30.091 
00:50	61.2	61.2	61.2	77	53.9	0	0	---	0.00	30.091 
00:55	61.2	61.2	61.2	77	53.9	0	0	---	0.00	30.091 
01:00	61.0	61.0	61.0	77	53.7	0	0	---	0.00	30.097 
01:05	61.0	61.0	61.0	77	53.7	0	0	---	0.00	30.097 
01:10	61.0	61.0	61.0	77	53.7	0	0	---	0.00	30.097 
01:15	61.0	61.0	61.0	77	53.7	0	0	---	0.00	30.097 
01:20	60.9	60.9	60.9	77	53.6	0	0	---	0.00	30.097 
01:25	61.0	61.0	61.0	77	53.7	0	0	---	0.00	30.097 
01:30	60.9	60.9	60.9	77	53.6	0	0	---	0.00	30.097 
01:35	60.9	60.9	60.9	77	53.6	0	0	---	0.00	30.097 
01:40	60.7	60.7	60.7	78	53.8	0	0	---	0.00	30.097 
01:45	60.5	60.5	60.5	78	53.6	0	0	---	0.00	30.098 
01:50	60.4	60.4	60.4	78	53.5	0	0	---	0.00	30.098 
01:55	60.4	60.4	60.4	78	53.5	0	0	---	0.00	30.098 
02:00	60.2	60.2	60.2	78	53.3	0	0	---	0.00	30.098 
02:05	60.2	60.2	60.2	78	53.3	0	0	---	0.00	30.098 
02:10	60.1	60.1	60.1	78	53.2	0	0	---	0.00	30.098 
02:15	59.8	59.8	59.8	79	53.3	0	0	---	0.00	30.096 
02:20	59.6	59.6	59.6	79	53.1	0	0	---	0.00	30.096 
02:25	59.3	59.3	59.3	80	53.1	0	0	---	0.00	30.096 
02:30	59.2	59.2	59.2	80	53.0	0	0	---	0.00	30.098 
02:35	59.0	59.0	59.0	81	53.2	0	0	---	0.00	30.098 
02:40	58.9	58.9	58.9	81	53.1	0	0	---	0.00	30.098 
02:45	58.7	58.7	58.7	81	52.9	0	0	---	0.00	30.099 
02:50	58.7	58.7	58.7	81	52.9	0	0	---	0.00	30.099 
02:55	58.6	58.6	58.6	82	53.1	0	0	---	0.00	30.099 
03:00	58.4	58.4	58.4	82	52.9	0	0	---	0.00	30.104 
03:05	58.3	58.3	58.3	82	52.8	0	0	---	0.00	30.104 
03:10	58.3	58.3	58.3	82	52.8	0	0	---	0.00	30.104 
03:15	58.0	58.0	58.0	82	52.5	0	0	---	0.00	30.111 
03:20	57.8	57.8	57.8	82	52.3	0	0	---	0.00	30.111 
03:25	57.6	57.6	57.6	83	52.5	0	0	---	0.00	30.111 
03:30	57.5	57.5	57.5	83	52.4	0	0	---	0.00	30.113 
03:35	57.5	57.5	57.5	84	52.7	0	0	---	0.00	30.113 
03:40	57.5	57.5	57.5	84	52.7	0	0	---	0.00	30.113 
03:45	57.5	57.5	57.5	84	52.7	0	0	---	0.00	30.115 
03:50	57.5	57.5	57.5	84	52.7	0	0	---	0.00	30.115 
03:55	57.5	57.5	57.5	84	52.7	0	0	---	0.00	30.115 
04:00	57.5	57.5	57.5	84	52.7	0	0	---	0.00	30.118 
04:05	57.3	57.3	57.3	84	52.5	0	0	---	0.00	30.118 
04:10	57.3	57.3	57.3	84	52.5	0	0	---	0.00	30.118 
04:15	57.3	57.3	57.3	84	52.5	0	0	---	0.00	30.117 
04:20	57.5	57.5	57.5	84	52.7	0	0	---	0.00	30.117 
04:25	57.5	57.5	57.5	84	52.7	0	0	---	0.00	30.117 
04:30	57.6	57.6	57.6	83	52.5	0	0	---	0.00	30.117 
04:35	57.6	57.6	57.6	83	52.5	0	0	---	0.00	30.117 
04:40	57.8	57.8	57.8	82	52.3	0	0	---	0.00	30.117 
04:45	57.8	57.8	57.8	82	52.3	0	0	---	0.00	30.124 
04:50	57.6	57.6	57.6	82	52.1	0	0	---	0.00	30.124 
04:55	57.5	57.5	57.5	81	51.7	0	0	---	0.00	30.124 
05:00	57.3	57.3	57.3	81	51.5	0	0	---	0.00	30.127 
05:05	57.3	57.3	57.3	82	51.9	0	0	---	0.00	30.127 
05:10	57.2	57.2	57.2	82	51.8	0	0	---	0.00	30.127 
05:15	57.2	57.2	57.2	82	51.8	0	0	---	0.00	30.132 
05:20	57.0	57.0	57.0	82	51.6	0	0	---	0.00	30.132 
05:25	56.9	56.9	56.9	82	51.5	0	0	---	0.00	30.132 
05:30	56.7	56.7	56.7	82	51.3	0	0	---	0.00	30.136 
05:35	56.6	56.6	56.6	83	51.5	0	0	---	0.00	30.136 
05:40	56.5	56.5	56.5	83	51.4	0	0	---	0.00	30.136 
05:45	56.3	56.3	56.3	83	51.2	0	0	---	0.00	30.141 
05:50	56.2	56.2	56.2	83	51.1	0	0	---	0.00	30.141 
05:55	56.0	56.0	56.0	83	50.9	0	0	---	0.00	30.141 
06:00	55.9	55.9	55.9	84	51.1	0	0	---	0.00	30.147 
06:05	55.9	55.9	55.9	84	51.1	0	0	---	0.00	30.147 
06:10	55.7	55.7	55.7	84	50.9	0	0	---	0.00	30.147 
06:15	55.6	55.6	55.6	84	50.8	0	0	---	0.00	30.151 
06:20	55.4	55.4	55.4	84	50.6	0	0	---	0.00	30.151 
06:25	55.3	55.3	55.3	85	50.9	0	0	---	0.00	30.151 
06:30	55.1	55.1	55.1	85	50.7	0	0	---	0.00	30.158 
06:35	54.8	54.8	54.8	85	50.4	0	0	---	0.00	30.158 
06:40	54.7	54.7	54.7	86	50.6	0	0	---	0.00	30.158 
06:45	54.5	54.5	54.5	87	50.7	0	0	---	0.00	30.165 
06:50	54.4	54.4	54.4	87	50.6	0	0	---	0.00	30.165 
06:55	54.2	54.2	54.2	88	50.7	0	0	---	0.00	30.165 
07:00	54.2	54.2	54.2	88	50.7	0	0	---	0.00	30.168 
07:05	54.1	54.1	54.1	88	50.6	0	0	---	0.00	30.168 
07:10	54.1	54.1	54.1	88	50.6	0	0	---	0.00	30.168 
07:15	54.1	54.1	54.1	89	50.9	0	0	---	0.00	30.174 
07:20	54.1	54.1	54.1	89	50.9	0	0	---	0.00	30.174 
07:25	54.2	54.2	54.2	89	51.0	0	0	---	0.00	30.174 
07:30	54.2	54.2	54.2	89	51.0	0	0	---	0.00	30.177 
07:35	54.2	54.2	54.2	89	51.0	0	0	---	0.00	30.177 
07:40	54.4	54.4	54.4	89	51.2	0	0	---	0.00	30.177 
07:45	54.5	54.5	54.5	89	51.3	0	0	---	0.00	30.181 
07:50	54.7	54.7	54.7	88	51.2	0	0	---	0.00	30.181 
07:55	55.0	55.0	55.0	88	51.5	0	0	---	0.00	30.181 
08:00	55.4	55.4	55.4	88	51.9	0	0	---	0.00	30.185 
08:05	55.7	55.7	55.7	87	51.9	0	0	---	0.00	30.185 
08:10	56.2	56.2	56.2	86	52.1	0	0	---	0.00	30.185 
08:15	56.6	56.6	56.6	85	52.1	0	0	---	0.00	30.189 
08:20	57.0	57.0	57.0	84	52.2	0	0	---	0.00	30.189 
08:25	57.5	57.5	57.5	83	52.4	0	0	---	0.00	30.189 
08:30	58.0	58.0	58.0	82	52.5	0	1	292	0.00	30.193 
08:35	58.4	58.4	58.4	81	52.6	0	1	292	0.00	30.193 
08:40	58.9	58.9	58.9	80	52.7	0	0	---	0.00	30.193 
08:45	59.2	59.2	59.2	78	52.3	0	1	292	0.00	30.197 
08:50	59.6	59.6	59.6	77	52.4	0	1	292	0.00	30.197 
08:55	59.9	59.9	59.9	76	52.3	0	1	292	0.00	30.197 
09:00	60.5	60.5	60.5	73	51.8	0	2	292	0.00	30.197 
09:05	60.9	60.9	60.9	73	52.2	0	2	292	0.00	30.197 
09:10	61.2	61.2	61.2	71	51.7	1	3	112	0.00	30.197 
09:15	61.3	61.3	61.3	69	51.0	0	3	90	0.00	30.203 
09:20	61.6	61.6	61.6	67	50.5	1	4	90	0.00	30.203 
09:25	62.1	62.1	62.1	66	50.6	0	2	68	0.00	30.203 
09:30	62.6	62.6	62.6	67	51.5	0	3	135	0.00	30.202 
09:35	62.9	62.9	62.9	62	49.7	1	4	90	0.00	30.202 
09:40	63.2	63.2	63.2	59	48.6	1	4	90	0.00	30.202 
09:45	63.4	63.4	63.4	60	49.3	2	4	112	0.00	30.203 
09:50	63.9	63.9	63.9	60	49.7	1	4	112	0.00	30.203 
09:55	64.2	64.2	64.2	58	49.1	1	4	180	0.00	30.203 
10:00	64.5	64.5	64.5	59	49.8	1	4	68	0.00	30.202 
10:05	65.2	65.2	65.2	57	49.6	1	4	112	0.00	30.202 
10:10	65.6	65.6	65.6	54	48.5	1	4	135	0.00	30.202 
10:15	66.3	66.3	66.3	56	50.1	0	3	90	0.00	30.208 
10:20	66.9	66.9	66.9	49	47.1	2	5	90	0.00	30.208 
10:25	67.4	67.4	67.4	49	47.6	2	4	112	0.00	30.208 
10:30	67.6	67.6	67.6	49	47.8	2	5	112	0.00	30.211 
10:35	67.8	67.8	67.8	46	46.3	2	6	112	0.00	30.211 
10:40	67.9	67.9	67.9	47	46.9	2	6	112	0.00	30.211 
10:45	68.4	68.4	68.4	47	47.4	1	6	135	0.00	30.210 
10:50	68.9	68.9	68.9	44	46.1	0	3	135	0.00	30.210 
10:55	69.3	69.3	69.3	45	47.0	1	3	68	0.00	30.210 
11:00	69.6	69.6	69.6	43	46.1	1	3	90	0.00	30.209 
11:05	69.9	69.9	69.9	43	46.4	1	4	90	0.00	30.209 
11:10	70.3	70.3	70.3	45	47.9	1	5	112	0.00	30.209 
11:15	70.3	70.3	70.3	44	47.3	0	2	0	0.00	30.207 
11:20	70.1	70.1	70.1	41	45.3	1	3	135	0.00	30.207 
11:25	70.4	70.4	70.4	41	45.6	1	5	112	0.00	30.207 
11:30	70.8	70.8	70.8	40	45.3	1	5	112	0.00	30.206 
11:35	71.1	71.1	71.1	42	46.8	1	5	112	0.00	30.206 
11:40	71.3	71.3	71.3	40	45.7	0	2	112	0.00	30.206 
11:45	71.6	71.6	71.6	40	46.0	1	5	112	0.00	30.210 
11:50	71.8	71.8	71.8	41	46.8	1	3	90	0.00	30.210 
11:55	72.3	72.3	72.3	39	45.9	1	4	112	0.00	30.210 
12:00	72.5	72.5	72.5	40	46.8	0	3	112	0.00	30.209 
12:05	72.7	72.7	72.7	39	46.3	1	4	112	0.00	30.209 
12:10	72.8	72.8	72.8	38	45.7	1	4	135	0.00	30.209 
12:15	73.2	73.2	73.2	39	46.7	2	6	135	0.00	30.204 
12:20	72.7	72.7	72.7	39	46.3	2	5	112	0.00	30.204 
12:25	72.1	72.1	72.1	40	46.4	2	6	90	0.00	30.204 
12:30	73.0	73.0	73.0	39	46.6	1	9	90	0.00	30.199 
12:35	73.2	73.2	73.2	38	46.1	2	5	112	0.00	30.199 
12:40	73.3	73.3	73.3	40	47.5	1	3	112	0.00	30.199 
12:45	73.5	73.5	73.5	36	44.9	0	6	112	0.00	30.197 
12:50	73.7	73.7	73.7	37	45.8	1	3	112	0.00	30.197 
12:55	73.7	73.7	73.7	37	45.8	1	2	45	0.00	30.197 
13:00	74.4	74.4	74.4	36	45.7	1	4	135	0.00	30.195 
13:05	74.6	74.6	74.6	35	45.1	1	4	112	0.00	30.195 
13:10	74.4	74.4	74.4	36	45.7	0	2	135	0.00	30.195 
13:15	74.2	74.2	74.2	36	45.5	1	3	0	0.00	30.195 
13:20	74.4	74.4	74.4	36	45.7	1	5	90	0.00	30.195 
13:25	74.6	74.6	74.6	36	45.9	1	3	90	0.00	30.195 
13:30	74.2	74.2	74.2	36	45.5	2	5	112	0.00	30.189 
13:35	74.4	74.4	74.4	35	44.9	0	1	135	0.00	30.189 
13:40	74.9	74.9	74.9	37	46.9	0	2	135	0.00	30.189 
13:45	75.4	75.4	77.4	36	46.6	1	4	135	0.00	30.184 
13:50	75.6	75.6	77.4	35	46.0	1	3	112	0.00	30.184 
13:55	75.8	75.8	77.4	33	44.6	1	5	112	0.00	30.184 
14:00	76.0	76.0	77.5	33	44.8	1	4	68	0.00	30.181 
14:05	75.8	75.8	77.4	33	44.6	1	5	90	0.00	30.181 
14:10	75.3	75.3	77.5	37	47.2	1	4	270	0.00	30.181 
14:15	75.4	75.4	77.4	35	45.8	1	4	270	0.00	30.181 
14:20	75.3	75.3	77.3	34	45.0	1	5	68	0.00	30.181 
14:25	75.3	75.3	77.3	34	45.0	2	5	112	0.00	30.181 
14:30	75.4	75.4	77.4	35	45.8	1	7	292	0.00	30.183 
14:35	75.8	75.8	77.3	31	43.0	0	2	292	0.00	30.183 
14:40	75.8	75.8	77.3	32	43.8	1	5	292	0.00	30.183 
14:45	76.0	76.0	77.5	33	44.8	1	5	90	0.00	30.178 
14:50	76.1	76.1	77.5	33	44.9	1	3	90	0.00	30.178 
14:55	76.3	76.3	77.5	32	44.3	1	5	90	0.00	30.178 
15:00	76.7	76.7	77.6	31	43.8	1	3	45	0.00	30.175 
15:05	76.1	76.1	77.4	31	43.3	0	1	338	0.00	30.175 
15:10	76.1	76.1	77.6	35	46.4	1	3	338	0.00	30.175 
15:15	76.5	76.5	77.5	31	43.6	1	4	112	0.00	30.168 
15:20	76.5	76.5	77.7	33	45.2	1	5	112	0.00	30.168 
15:25	76.8	76.8	77.7	31	43.9	1	3	158	0.00	30.168 
15:30	76.3	76.3	77.6	33	45.1	1	3	292	0.00	30.164 
15:35	76.7	76.7	77.8	34	46.2	0	3	270	0.00	30.164 
15:40	76.7	76.7	77.7	32	44.6	1	6	45	0.00	30.164 
15:45	76.8	76.8	77.7	32	44.7	1	3	135	0.00	30.161 
15:50	77.0	77.0	77.7	31	44.0	1	3	90	0.00	30.161 
15:55	76.3	76.3	77.6	33	45.1	1	3	315	0.00	30.161 
16:00	76.3	76.3	77.6	33	45.1	1	4	90	0.00	30.159 
16:05	76.5	76.5	77.7	34	46.0	1	3	112	0.00	30.159 
16:10	76.3	76.3	77.5	32	44.3	1	3	292	0.00	30.159 
16:15	76.3	76.3	77.5	31	43.4	1	3	292	0.00	30.157 
16:20	76.3	76.3	77.6	34	45.8	0	2	292	0.00	30.157 
16:25	76.5	76.5	77.6	32	44.4	0	3	135	0.00	30.157 
16:30	76.8	76.8	77.8	34	46.3	0	2	22	0.00	30.154 
16:35	77.0	77.0	77.8	32	44.9	1	4	68	0.00	30.154 
16:40	76.7	76.7	77.7	33	45.4	1	2	90	0.00	30.154 
16:45	76.5	76.5	77.7	33	45.2	1	4	292	0.00	30.152 
16:50	76.5	76.5	77.7	33	45.2	0	5	90	0.00	30.152 
16:55	76.7	76.7	77.7	32	44.6	1	3	90	0.00	30.152 
17:00	76.5	76.5	77.5	31	43.6	2	4	90	0.00	30.150 
17:05	76.1	76.1	77.5	33	44.9	1	5	45	0.00	30.150 
17:10	75.8	75.8	77.4	33	44.6	2	6	90	0.00	30.150 
17:15	75.8	75.8	77.4	33	44.6	1	3	90	0.00	30.151 
17:20	76.0	76.0	77.5	34	45.6	1	3	135	0.00	30.151 
17:25	76.0	76.0	77.6	35	46.4	0	2	158	0.00	30.151 
17:30	76.0	76.0	77.5	33	44.8	0	1	158	0.00	30.152 
17:35	76.0	76.0	77.4	32	44.0	1	4	90	0.00	30.152 
17:40	75.8	75.8	77.4	33	44.6	0	2	90	0.00	30.152 
17:45	75.8	75.8	77.4	33	44.6	0	2	90	0.00	30.151 
17:50	75.8	75.8	77.5	34	45.4	0	1	90	0.00	30.151 
17:55	75.6	75.6	77.4	34	45.2	0	3	90	0.00	30.151 
18:00	75.3	75.3	77.4	35	45.7	1	3	292	0.00	30.153 
18:05	74.9	74.9	74.9	36	46.1	0	2	292	0.00	30.153 
18:10	74.9	74.9	74.9	36	46.1	0	1	292	0.00	30.153 
18:15	74.7	74.7	74.7	37	46.7	0	3	135	0.00	30.155 
18:20	74.6	74.6	74.6	38	47.3	1	5	135	0.00	30.155 
18:25	74.2	74.2	74.2	36	45.5	0	2	135	0.00	30.155 
18:30	74.0	74.0	74.0	37	46.1	0	2	135	0.00	30.154 
18:35	73.9	73.9	73.9	39	47.4	0	1	135	0.00	30.154 
18:40	73.9	73.9	73.9	40	48.0	1	3	112	0.00	30.154 
18:45	73.7	73.7	73.7	39	47.2	0	2	135	0.00	30.154 
18:50	73.5	73.5	73.5	40	47.7	0	2	135	0.00	30.154 
18:55	73.3	73.3	73.3	39	46.8	0	0	---	0.00	30.154 
19:00	73.2	73.2	73.2	39	46.7	0	3	135	0.00	30.150 
19:05	73.0	73.0	73.0	40	47.2	0	1	135	0.00	30.150 
19:10	73.0	73.0	73.0	41	47.9	0	1	135	0.00	30.150 
19:15	72.8	72.8	72.8	41	47.7	0	1	135	0.00	30.143 
19:20	72.7	72.7	72.7	41	47.6	0	2	135	0.00	30.143 
19:25	72.5	72.5	72.5	41	47.4	0	1	135	0.00	30.143 
19:30	72.3	72.3	72.3	42	47.9	0	2	135	0.00	30.144 
19:35	72.1	72.1	72.1	43	48.4	0	2	135	0.00	30.144 
19:40	72.0	72.0	72.0	42	47.6	0	0	---	0.00	30.144 
19:45	71.8	71.8	71.8	43	48.1	0	0	---	0.00	30.145 
19:50	71.5	71.5	71.5	43	47.8	0	0	---	0.00	30.145 
19:55	71.1	71.1	71.1	44	48.1	0	0	---	0.00	30.145 
20:00	70.9	70.9	70.9	44	47.9	0	1	135	0.00	30.150 
20:05	70.6	70.6	70.6	45	48.2	0	0	---	0.00	30.150 
20:10	70.3	70.3	70.3	46	48.5	0	0	---	0.00	30.150 
20:15	69.9	69.9	69.9	46	48.2	0	0	---	0.00	30.145 
20:20	69.6	69.6	69.6	47	48.5	0	0	---	0.00	30.145 
20:25	69.1	69.1	69.1	48	48.6	0	0	---	0.00	30.145 
20:30	68.8	68.8	68.8	48	48.3	0	0	---	0.00	30.147 
20:35	68.4	68.4	68.4	49	48.5	0	0	---	0.00	30.147 
20:40	67.9	67.9	67.9	50	48.6	0	0	---	0.00	30.147 
20:45	67.6	67.6	67.6	50	48.3	0	0	---	0.00	30.150 
20:50	67.1	67.1	67.1	52	48.9	0	0	---	0.00	30.150 
20:55	66.8	66.8	66.8	53	49.1	0	0	---	0.00	30.150 
21:00	66.3	66.3	66.3	54	49.1	0	0	---	0.00	30.153 
21:05	66.0	66.0	66.0	55	49.4	0	0	---	0.00	30.153 
21:10	65.5	65.5	65.5	56	49.4	0	0	---	0.00	30.153 
21:15	65.0	65.0	65.0	58	49.9	0	0	---	0.00	30.152 
21:20	64.7	64.7	64.7	59	50.0	0	0	---	0.00	30.152 
21:25	64.3	64.3	64.3	60	50.1	0	0	---	0.00	30.152 
21:30	63.9	63.9	63.9	61	50.2	0	0	---	0.00	30.154 
21:35	63.5	63.5	63.5	61	49.8	0	0	---	0.00	30.154 
21:40	63.2	63.2	63.2	62	50.0	0	0	---	0.00	30.154 
21:45	62.9	62.9	62.9	63	50.1	0	0	---	0.00	30.156 
21:50	62.6	62.6	62.6	64	50.2	0	0	---	0.00	30.156 
21:55	62.3	62.3	62.3	64	50.0	0	0	---	0.00	30.156 
22:00	62.1	62.1	62.1	65	50.2	0	0	---	0.00	30.160 
22:05	61.8	61.8	61.8	66	50.3	0	0	---	0.00	30.160 
22:10	61.5	61.5	61.5	67	50.4	0	0	---	0.00	30.160 
22:15	61.2	61.2	61.2	68	50.5	0	0	---	0.00	30.157 
22:20	61.0	61.0	61.0	68	50.4	0	0	---	0.00	30.157 
22:25	60.7	60.7	60.7	69	50.5	0	0	---	0.00	30.157 
22:30	60.4	60.4	60.4	69	50.2	0	0	---	0.00	30.159 
22:35	60.2	60.2	60.2	71	50.8	0	0	---	0.00	30.159 
22:40	59.9	59.9	59.9	72	50.8	0	0	---	0.00	30.159 
22:45	59.8	59.8	59.8	72	50.8	0	0	---	0.00	30.164 
22:50	59.6	59.6	59.6	72	50.6	0	0	---	0.00	30.164 
22:55	59.5	59.5	59.5	73	50.8	0	0	---	0.00	30.164 
23:00	59.2	59.2	59.2	74	50.9	0	0	---	0.00	30.168 
23:05	59.0	59.0	59.0	75	51.1	0	0	---	0.00	30.168 
23:10	58.7	58.7	58.7	76	51.2	0	0	---	0.00	30.168 
23:15	58.6	58.6	58.6	77	51.4	0	0	---	0.00	30.162 
23:20	58.4	58.4	58.4	77	51.2	0	0	---	0.00	30.162 
23:25	58.3	58.3	58.3	77	51.1	0	0	---	0.00	30.162 
23:30	58.1	58.1	58.1	78	51.3	0	0	---	0.00	30.161 
23:35	58.0	58.0	58.0	78	51.2	0	0	---	0.00	30.161 
23:40	57.8	57.8	57.8	79	51.3	0	0	---	0.00	30.161 
23:45	57.5	57.5	57.5	79	51.0	0	0	---	0.00	30.160 
23:50	57.3	57.3	57.3	80	51.2	0	0	---	0.00	30.160 
23:55	57.2	57.2	57.2	80	51.1	0	0	---	0.00	30.160 

CoCoRaHS
IN-AL-39
A2 Web Hosting
Creative Commons License
GoDaddy
search engine by freefind advanced

loaded 2018-11-15 15:53:28 • last modified 2010-11-18 10:43:29
Privacy PolicyDisclaimer
• wx.awcolley.com is powered by PmWiki v.2002016 •
• all content (unless otherwise noted) © 2018 A W Colley